Quick Links (Output Below):   Max & Min Temps   /   Climate Reports   /   Zone Forecasts
River Forecasts   /   Forestry Forecasts   /   Aviation Forecasts   /   Radars   /   Features

Terminal Aerodrome Forecast (Little Rock)

Pick a Site:
Arkadelphia | El Dorado | Fayetteville | Fort Smith | Harrison | Highfill | Hot Springs | Jonesboro
Little Rock | Monticello | Mountain Home | Pine Bluff | Texarkana
 Forecast 

KLIT 180540Z 1806/1906 VRB02KT P6SM VCSH BKN100 BKN250
     FM181000 01004KT P6SM BKN100
     FM181400 04007KT P6SM SCT100
     FM181800 06009KT P6SM SCT050 SCT100
     FM190000 06004KT P6SM SCT250=


 Latest METARs (Observations) 
How to Decode METARs
11Z KLIT 181053Z 05003KT 10SM -RA SCT055 OVC110 13/10 A3021 RMK AO2
         RAB19 SLP232 P0000 T01330100
         
10Z KLIT 180953Z 34003KT 10SM BKN060 OVC095 13/09 A3022 RMK AO2
         RAB25E34 SLP235 P0000 T01330094
         
09Z KLIT 180853Z 35005KT 10SM SCT055 BKN100 OVC200 13/10 A3022 RMK AO2
         RAB26E44 SLP234 P0000 60000 T01330100 53002
         
08Z KLIT 180753Z 00000KT 10SM SCT055 BKN110 OVC200 13/09 A3021 RMK AO2
         RAE05 SLP232 P0000 T01330094
         
07Z KLIT 180653Z 00000KT 10SM -RA BKN110 OVC200 13/09 A3021 RMK AO2
         RAB52 SLP230 P0000 T01280094
         
06Z KLIT 180553Z 00000KT 10SM BKN120 OVC250 13/09 A3021 RMK AO2 SLP232
         T01280089 10183 20122 402110044 58002
         
05Z KLIT 180453Z 00000KT 10SM FEW110 BKN250 13/08 A3022 RMK AO2 SLP233
         T01280083
         
04Z KLIT 180353Z 00000KT 10SM FEW110 BKN250 14/08 A3022 RMK AO2 SLP234
         T01390078
         
03Z KLIT 180253Z 12004KT 10SM BKN100 BKN250 16/08 A3022 RMK AO2 SLP233
         T01610078 51011
         
02Z KLIT 180153Z 12005KT 10SM BKN100 BKN250 17/08 A3021 RMK AO2 SLP230
         T01670078
         
***** Today's Observations (Above) *****


Back to Main Page
http://www.srh.noaa.gov/lzk/qfcst.php

USA.gov is the U.S. government's official web portal to all federal, state and local government web resources and services.